Airfield :
LOGIN :

Register | Disclaimer

   EN    FR    IT 

 










Legend :    VFR   Marginal VFR   IFR   Intensive IFR   Very Intensive IFR
Visi :
Ceiling :
>= 8 km
>= 3000ft
5 to 8 km
1000 to 3000 ft
1500m to 5 km
500 to 1000 ft
800 to 1500m
200 to 500 ft
< 800m
< 200 ft
Symbols :   Thunderstorms  Fog  Heavy snow  Heavy precipitations  Wind > 20 kt
SIGMETs :     Misc.  Thunderstorms  Icing  Turbulence  Mountain Waves  Volcanic Ashes






- Airport Elevation : 194 ft


EBCV - Chièvres

CURRENT METAR :
  • 040455Z AUTO 19005KT 9999 NCD 11/11 Q1021 BLU

EXPIRED METARs :
  • 040425Z AUTO 18004KT 9999 NCD 10/10 Q1021 BLU
  • 040325Z AUTO 21004KT 9999 NCD 09/09 Q1021 BLU
  • 040255Z AUTO 21004KT 9999 NCD 09/09 Q1021 BLU
  • 040225Z AUTO 20005KT 9999 NCD 09/09 Q1021 BLU

TAF TAF EBCV
Valid from the 03 at 19:00 until the 04 at 07:00 UTC


031541Z 0319/0407 33004KT 9999 SKC
BECMG 0400/0402 22003KT
TEMPO 0402/0405 VRB01KT 5000 BR
PROB30
TEMPO 0402/0405 2000 BR BY EBWM



MET'MAP, your aeronautical weather chart ! - Copyright ORBIFLY December 2007 - Disclaimer

ORBIFLY MET'MAP TEAM :

Programming & Development : Alexandra Zaïnal
Original concept : Baudouin d'Aumeries
Technical & hardware support : Manuel Goepfert
Assistance : Marc-Olivier Méhu




SOURCES & CREDITS :

   NOAA